sensor_id;sensor_type;location;lat;lon;timestamp;temperature;humidity
28177;DHT22;15461;41.652;9.378;2022-09-09T00:00:33;27.70;90.60
28177;DHT22;15461;41.652;9.378;2022-09-09T00:03:11;27.60;91.00
28177;DHT22;15461;41.652;9.378;2022-09-09T00:08:23;27.60;90.00
28177;DHT22;15461;41.652;9.378;2022-09-09T00:10:52;27.60;86.90
28177;DHT22;15461;41.652;9.378;2022-09-09T00:13:46;27.60;87.90
28177;DHT22;15461;41.652;9.378;2022-09-09T00:24:54;27.60;88.60
28177;DHT22;15461;41.652;9.378;2022-09-09T00:30:16;27.40;88.40
28177;DHT22;15461;41.652;9.378;2022-09-09T00:32:46;27.30;88.90
28177;DHT22;15461;41.652;9.378;2022-09-09T00:35:17;27.20;91.10
28177;DHT22;15461;41.652;9.378;2022-09-09T00:37:46;27.20;92.60
28177;DHT22;15461;41.652;9.378;2022-09-09T00:40:33;27.20;94.50
28177;DHT22;15461;41.652;9.378;2022-09-09T00:43:07;27.10;92.20
28177;DHT22;15461;41.652;9.378;2022-09-09T00:46:05;27.10;94.50
28177;DHT22;15461;41.652;9.378;2022-09-09T00:49:07;27.10;94.70
28177;DHT22;15461;41.652;9.378;2022-09-09T00:51:52;27.00;95.00
28177;DHT22;15461;41.652;9.378;2022-09-09T00:59:47;26.70;95.80
28177;DHT22;15461;41.652;9.378;2022-09-09T01:04:47;26.60;97.90
28177;DHT22;15461;41.652;9.378;2022-09-09T01:07:17;26.50;97.20
28177;DHT22;15461;41.652;9.378;2022-09-09T01:12:41;26.40;95.70
28177;DHT22;15461;41.652;9.378;2022-09-09T01:15:15;26.40;94.70
28177;DHT22;15461;41.652;9.378;2022-09-09T01:18:06;26.40;94.00
28177;DHT22;15461;41.652;9.378;2022-09-09T01:23:17;26.50;95.20
28177;DHT22;15461;41.652;9.378;2022-09-09T01:28:43;26.40;95.00
28177;DHT22;15461;41.652;9.378;2022-09-09T01:31:17;26.40;95.40
28177;DHT22;15461;41.652;9.378;2022-09-09T01:33:46;26.30;95.50
28177;DHT22;15461;41.652;9.378;2022-09-09T01:38:49;26.40;94.70
28177;DHT22;15461;41.652;9.378;2022-09-09T01:41:17;26.40;94.70
28177;DHT22;15461;41.652;9.378;2022-09-09T01:44:00;26.40;94.90
28177;DHT22;15461;41.652;9.378;2022-09-09T01:46:29;26.40;95.00
28177;DHT22;15461;41.652;9.378;2022-09-09T01:48:57;26.30;94.60
28177;DHT22;15461;41.652;9.378;2022-09-09T01:51:25;26.40;93.90
28177;DHT22;15461;41.652;9.378;2022-09-09T01:53:52;26.40;93.90
28177;DHT22;15461;41.652;9.378;2022-09-09T02:02:19;26.30;94.80
28177;DHT22;15461;41.652;9.378;2022-09-09T02:10:49;26.20;95.20
28177;DHT22;15461;41.652;9.378;2022-09-09T02:13:29;26.20;94.50
28177;DHT22;15461;41.652;9.378;2022-09-09T02:19:02;26.20;94.20
28177;DHT22;15461;41.652;9.378;2022-09-09T02:21:43;26.10;94.50
28177;DHT22;15461;41.652;9.378;2022-09-09T02:24:12;26.00;94.70
28177;DHT22;15461;41.652;9.378;2022-09-09T02:26:49;26.00;94.10
28177;DHT22;15461;41.652;9.378;2022-09-09T02:29:31;25.90;96.20
28177;DHT22;15461;41.652;9.378;2022-09-09T02:32:01;25.70;95.30
28177;DHT22;15461;41.652;9.378;2022-09-09T02:34:36;25.60;95.60
28177;DHT22;15461;41.652;9.378;2022-09-09T02:37:06;25.60;95.40
28177;DHT22;15461;41.652;9.378;2022-09-09T02:39:34;25.60;95.50
28177;DHT22;15461;41.652;9.378;2022-09-09T02:42:02;25.50;96.30
28177;DHT22;15461;41.652;9.378;2022-09-09T02:44:31;25.40;97.00
28177;DHT22;15461;41.652;9.378;2022-09-09T02:47:29;25.20;97.90
28177;DHT22;15461;41.652;9.378;2022-09-09T02:53:09;25.10;99.30
28177;DHT22;15461;41.652;9.378;2022-09-09T02:56:04;25.00;99.60
28177;DHT22;15461;41.652;9.378;2022-09-09T02:58:37;25.00;99.90
28177;DHT22;15461;41.652;9.378;2022-09-09T03:01:05;24.90;99.90
28177;DHT22;15461;41.652;9.378;2022-09-09T03:03:31;24.70;99.90
28177;DHT22;15461;41.652;9.378;2022-09-09T03:06:00;24.60;99.90
28177;DHT22;15461;41.652;9.378;2022-09-09T03:08:27;24.50;99.90
28177;DHT22;15461;41.652;9.378;2022-09-09T03:10:55;24.50;99.90
28177;DHT22;15461;41.652;9.378;2022-09-09T03:13:22;24.40;99.90
28177;DHT22;15461;41.652;9.378;2022-09-09T03:15:49;24.30;99.90
28177;DHT22;15461;41.652;9.378;2022-09-09T03:18:19;24.20;99.90
28177;DHT22;15461;41.652;9.378;2022-09-09T03:20:49;24.20;99.90
28177;DHT22;15461;41.652;9.378;2022-09-09T03:23:17;24.20;99.90
28177;DHT22;15461;41.652;9.378;2022-09-09T03:25:51;24.10;99.90
28177;DHT22;15461;41.652;9.378;2022-09-09T03:28:24;24.00;99.90
28177;DHT22;15461;41.652;9.378;2022-09-09T03:30:59;23.90;99.90
28177;DHT22;15461;41.652;9.378;2022-09-09T03:33:25;23.80;99.90
28177;DHT22;15461;41.652;9.378;2022-09-09T03:35:52;23.90;99.90
28177;DHT22;15461;41.652;9.378;2022-09-09T03:38:19;23.80;99.90
28177;DHT22;15461;41.652;9.378;2022-09-09T03:40:50;23.80;99.90
28177;DHT22;15461;41.652;9.378;2022-09-09T03:43:17;23.60;99.90
28177;DHT22;15461;41.652;9.378;2022-09-09T03:45:47;23.60;99.90
28177;DHT22;15461;41.652;9.378;2022-09-09T03:48:14;23.50;99.90
28177;DHT22;15461;41.652;9.378;2022-09-09T03:50:48;23.50;99.90
28177;DHT22;15461;41.652;9.378;2022-09-09T03:53:15;23.60;99.90
28177;DHT22;15461;41.652;9.378;2022-09-09T03:55:45;23.80;99.90
28177;DHT22;15461;41.652;9.378;2022-09-09T03:58:15;24.10;99.90
28177;DHT22;15461;41.652;9.378;2022-09-09T04:00:42;24.20;99.20
28177;DHT22;15461;41.652;9.378;2022-09-09T04:03:09;24.40;99.10
28177;DHT22;15461;41.652;9.378;2022-09-09T04:05:35;24.50;98.00
28177;DHT22;15461;41.652;9.378;2022-09-09T04:08:06;24.50;97.20
28177;DHT22;15461;41.652;9.378;2022-09-09T04:10:33;24.40;97.60
28177;DHT22;15461;41.652;9.378;2022-09-09T04:13:00;24.40;98.00
28177;DHT22;15461;41.652;9.378;2022-09-09T04:15:26;24.30;98.80
28177;DHT22;15461;41.652;9.378;2022-09-09T04:17:53;24.30;97.40
28177;DHT22;15461;41.652;9.378;2022-09-09T04:20:19;24.30;97.20
28177;DHT22;15461;41.652;9.378;2022-09-09T04:22:45;24.30;97.30
28177;DHT22;15461;41.652;9.378;2022-09-09T04:25:11;24.30;97.60
28177;DHT22;15461;41.652;9.378;2022-09-09T04:27:37;24.30;97.30
28177;DHT22;15461;41.652;9.378;2022-09-09T04:30:04;24.20;97.60
28177;DHT22;15461;41.652;9.378;2022-09-09T04:32:33;24.20;97.80
28177;DHT22;15461;41.652;9.378;2022-09-09T04:34:59;24.20;97.90
28177;DHT22;15461;41.652;9.378;2022-09-09T04:37:26;24.30;97.80
28177;DHT22;15461;41.652;9.378;2022-09-09T04:39:52;24.40;98.20
28177;DHT22;15461;41.652;9.378;2022-09-09T04:42:18;24.40;98.40
28177;DHT22;15461;41.652;9.378;2022-09-09T04:44:46;24.40;99.20
28177;DHT22;15461;41.652;9.378;2022-09-09T04:47:12;24.40;99.80
28177;DHT22;15461;41.652;9.378;2022-09-09T04:49:39;24.40;99.90
28177;DHT22;15461;41.652;9.378;2022-09-09T04:52:05;24.30;99.90
28177;DHT22;15461;41.652;9.378;2022-09-09T04:54:33;24.10;99.90
28177;DHT22;15461;41.652;9.378;2022-09-09T04:56:59;24.00;99.90
28177;DHT22;15461;41.652;9.378;2022-09-09T04:59:25;23.90;99.90
28177;DHT22;15461;41.652;9.378;2022-09-09T05:01:55;23.90;99.90
28177;DHT22;15461;41.652;9.378;2022-09-09T05:04:21;23.70;99.90
28177;DHT22;15461;41.652;9.378;2022-09-09T05:06:47;23.50;99.90
28177;DHT22;15461;41.652;9.378;2022-09-09T05:09:14;23.40;99.90
28177;DHT22;15461;41.652;9.378;2022-09-09T05:11:40;23.20;99.90
28177;DHT22;15461;41.652;9.378;2022-09-09T05:14:29;23.00;99.90
28177;DHT22;15461;41.652;9.378;2022-09-09T05:16:55;22.90;99.90
28177;DHT22;15461;41.652;9.378;2022-09-09T05:19:26;22.90;99.90
28177;DHT22;15461;41.652;9.378;2022-09-09T05:21:53;22.80;99.90
28177;DHT22;15461;41.652;9.378;2022-09-09T05:24:25;22.80;99.90
28177;DHT22;15461;41.652;9.378;2022-09-09T05:26:54;22.70;99.90
28177;DHT22;15461;41.652;9.378;2022-09-09T05:29:23;22.80;99.90
28177;DHT22;15461;41.652;9.378;2022-09-09T05:31:49;22.90;99.90
28177;DHT22;15461;41.652;9.378;2022-09-09T05:34:19;23.00;99.90
28177;DHT22;15461;41.652;9.378;2022-09-09T05:36:46;23.10;99.90
28177;DHT22;15461;41.652;9.378;2022-09-09T05:39:13;23.50;99.50
28177;DHT22;15461;41.652;9.378;2022-09-09T05:41:40;23.70;99.20
28177;DHT22;15461;41.652;9.378;2022-09-09T05:44:06;23.90;99.00
28177;DHT22;15461;41.652;9.378;2022-09-09T05:47:03;24.00;98.60
28177;DHT22;15461;41.652;9.378;2022-09-09T05:49:33;24.20;98.70
28177;DHT22;15461;41.652;9.378;2022-09-09T05:51:59;24.40;98.10
28177;DHT22;15461;41.652;9.378;2022-09-09T05:54:26;24.60;98.10
28177;DHT22;15461;41.652;9.378;2022-09-09T05:56:54;24.80;98.10
28177;DHT22;15461;41.652;9.378;2022-09-09T05:59:20;24.80;98.30
28177;DHT22;15461;41.652;9.378;2022-09-09T06:01:50;24.90;98.00
28177;DHT22;15461;41.652;9.378;2022-09-09T06:04:28;25.00;97.40
28177;DHT22;15461;41.652;9.378;2022-09-09T06:06:56;25.10;97.30
28177;DHT22;15461;41.652;9.378;2022-09-09T06:09:22;25.20;97.40
28177;DHT22;15461;41.652;9.378;2022-09-09T06:11:49;25.30;96.60
28177;DHT22;15461;41.652;9.378;2022-09-09T06:14:15;25.40;96.30
28177;DHT22;15461;41.652;9.378;2022-09-09T06:16:45;25.60;95.10
28177;DHT22;15461;41.652;9.378;2022-09-09T06:19:17;25.80;94.40
28177;DHT22;15461;41.652;9.378;2022-09-09T06:21:43;26.00;94.00
28177;DHT22;15461;41.652;9.378;2022-09-09T06:24:10;26.10;93.60
28177;DHT22;15461;41.652;9.378;2022-09-09T06:26:39;26.20;92.90
28177;DHT22;15461;41.652;9.378;2022-09-09T06:29:12;26.40;92.80
28177;DHT22;15461;41.652;9.378;2022-09-09T06:31:39;26.60;92.30
28177;DHT22;15461;41.652;9.378;2022-09-09T06:34:20;26.60;92.20
28177;DHT22;15461;41.652;9.378;2022-09-09T06:36:49;26.70;92.30
28177;DHT22;15461;41.652;9.378;2022-09-09T06:39:16;26.80;92.30
28177;DHT22;15461;41.652;9.378;2022-09-09T06:41:44;26.80;92.10
28177;DHT22;15461;41.652;9.378;2022-09-09T06:44:30;26.90;92.60
28177;DHT22;15461;41.652;9.378;2022-09-09T06:46:57;27.10;92.00
28177;DHT22;15461;41.652;9.378;2022-09-09T06:49:23;27.10;92.20
28177;DHT22;15461;41.652;9.378;2022-09-09T06:51:49;27.30;92.20
28177;DHT22;15461;41.652;9.378;2022-09-09T06:54:16;27.40;91.80
28177;DHT22;15461;41.652;9.378;2022-09-09T06:56:44;27.50;91.60
28177;DHT22;15461;41.652;9.378;2022-09-09T06:59:17;27.60;92.00
28177;DHT22;15461;41.652;9.378;2022-09-09T07:01:44;27.70;90.70
28177;DHT22;15461;41.652;9.378;2022-09-09T07:04:13;27.70;90.40
28177;DHT22;15461;41.652;9.378;2022-09-09T07:06:43;27.80;90.80
28177;DHT22;15461;41.652;9.378;2022-09-09T07:09:15;27.90;91.70
28177;DHT22;15461;41.652;9.378;2022-09-09T07:11:46;28.00;91.30
28177;DHT22;15461;41.652;9.378;2022-09-09T07:14:15;28.20;89.50
28177;DHT22;15461;41.652;9.378;2022-09-09T07:16:45;28.30;88.60
28177;DHT22;15461;41.652;9.378;2022-09-09T07:19:14;28.40;88.30
28177;DHT22;15461;41.652;9.378;2022-09-09T07:21:41;28.40;90.10
28177;DHT22;15461;41.652;9.378;2022-09-09T07:24:09;28.50;91.40
28177;DHT22;15461;41.652;9.378;2022-09-09T07:26:37;28.60;90.90
28177;DHT22;15461;41.652;9.378;2022-09-09T07:29:04;28.60;91.60
28177;DHT22;15461;41.652;9.378;2022-09-09T07:31:33;28.70;90.70
28177;DHT22;15461;41.652;9.378;2022-09-09T07:34:00;28.70;90.00
28177;DHT22;15461;41.652;9.378;2022-09-09T07:36:31;28.80;91.80
28177;DHT22;15461;41.652;9.378;2022-09-09T07:39:01;28.90;93.30
28177;DHT22;15461;41.652;9.378;2022-09-09T07:41:34;29.00;91.90
28177;DHT22;15461;41.652;9.378;2022-09-09T07:44:10;29.00;91.10
28177;DHT22;15461;41.652;9.378;2022-09-09T07:46:38;29.20;89.40
28177;DHT22;15461;41.652;9.378;2022-09-09T07:49:08;29.30;88.00
28177;DHT22;15461;41.652;9.378;2022-09-09T07:51:39;29.30;86.40
28177;DHT22;15461;41.652;9.378;2022-09-09T07:54:07;29.40;87.00
28177;DHT22;15461;41.652;9.378;2022-09-09T07:56:36;29.50;86.50
28177;DHT22;15461;41.652;9.378;2022-09-09T07:59:03;29.70;83.30
28177;DHT22;15461;41.652;9.378;2022-09-09T08:01:39;29.70;81.30
28177;DHT22;15461;41.652;9.378;2022-09-09T08:04:09;29.80;79.90
28177;DHT22;15461;41.652;9.378;2022-09-09T08:06:38;29.90;80.80
28177;DHT22;15461;41.652;9.378;2022-09-09T08:09:06;30.00;81.50
28177;DHT22;15461;41.652;9.378;2022-09-09T08:11:33;30.10;74.60
28177;DHT22;15461;41.652;9.378;2022-09-09T08:14:00;30.10;75.10
28177;DHT22;15461;41.652;9.378;2022-09-09T08:16:29;29.90;73.90
28177;DHT22;15461;41.652;9.378;2022-09-09T08:18:58;29.80;75.30
28177;DHT22;15461;41.652;9.378;2022-09-09T08:21:27;29.70;76.70
28177;DHT22;15461;41.652;9.378;2022-09-09T08:23:59;29.60;76.20
28177;DHT22;15461;41.652;9.378;2022-09-09T08:26:32;29.60;77.00
28177;DHT22;15461;41.652;9.378;2022-09-09T08:29:00;29.60;72.70
28177;DHT22;15461;41.652;9.378;2022-09-09T08:31:30;29.70;72.50
28177;DHT22;15461;41.652;9.378;2022-09-09T08:33:57;29.80;75.70
28177;DHT22;15461;41.652;9.378;2022-09-09T08:36:27;29.90;74.30
28177;DHT22;15461;41.652;9.378;2022-09-09T08:38:55;29.90;75.20
28177;DHT22;15461;41.652;9.378;2022-09-09T08:44:01;30.30;75.50
28177;DHT22;15461;41.652;9.378;2022-09-09T08:49:39;30.50;71.60
28177;DHT22;15461;41.652;9.378;2022-09-09T08:52:36;30.60;73.00
28177;DHT22;15461;41.652;9.378;2022-09-09T08:55:22;30.60;72.70
28177;DHT22;15461;41.652;9.378;2022-09-09T08:57:52;30.70;72.60
28177;DHT22;15461;41.652;9.378;2022-09-09T09:00:20;30.90;73.20
28177;DHT22;15461;41.652;9.378;2022-09-09T09:05:43;30.90;71.90
28177;DHT22;15461;41.652;9.378;2022-09-09T09:08:25;30.90;71.00
28177;DHT22;15461;41.652;9.378;2022-09-09T09:10:55;31.10;72.60
28177;DHT22;15461;41.652;9.378;2022-09-09T09:16:17;31.20;71.30
28177;DHT22;15461;41.652;9.378;2022-09-09T09:18:46;31.20;70.10
28177;DHT22;15461;41.652;9.378;2022-09-09T09:21:34;31.30;69.10
28177;DHT22;15461;41.652;9.378;2022-09-09T09:24:06;31.30;68.00
28177;DHT22;15461;41.652;9.378;2022-09-09T09:26:35;31.30;67.00
28177;DHT22;15461;41.652;9.378;2022-09-09T09:29:13;31.30;66.50
28177;DHT22;15461;41.652;9.378;2022-09-09T09:32:07;31.40;67.40
28177;DHT22;15461;41.652;9.378;2022-09-09T09:34:35;31.50;66.90
28177;DHT22;15461;41.652;9.378;2022-09-09T09:37:01;31.50;66.70
28177;DHT22;15461;41.652;9.378;2022-09-09T09:39:32;31.70;66.50
28177;DHT22;15461;41.652;9.378;2022-09-09T09:42:13;31.80;66.70
28177;DHT22;15461;41.652;9.378;2022-09-09T09:44:41;31.80;64.30
28177;DHT22;15461;41.652;9.378;2022-09-09T09:47:20;31.60;64.90
28177;DHT22;15461;41.652;9.378;2022-09-09T09:49:56;31.60;64.90
28177;DHT22;15461;41.652;9.378;2022-09-09T09:52:25;31.50;65.70
28177;DHT22;15461;41.652;9.378;2022-09-09T09:54:52;31.50;66.80
28177;DHT22;15461;41.652;9.378;2022-09-09T09:57:28;31.70;66.50
28177;DHT22;15461;41.652;9.378;2022-09-09T10:00:15;31.80;64.90
28177;DHT22;15461;41.652;9.378;2022-09-09T10:02:49;31.70;63.70
28177;DHT22;15461;41.652;9.378;2022-09-09T10:05:22;31.70;64.50
28177;DHT22;15461;41.652;9.378;2022-09-09T10:08:05;31.80;63.40
28177;DHT22;15461;41.652;9.378;2022-09-09T10:16:09;31.70;64.00
28177;DHT22;15461;41.652;9.378;2022-09-09T10:24:35;31.80;64.10
28177;DHT22;15461;41.652;9.378;2022-09-09T10:32:49;31.80;65.00
28177;DHT22;15461;41.652;9.378;2022-09-09T10:35:34;31.90;64.80
28177;DHT22;15461;41.652;9.378;2022-09-09T10:40:41;31.70;64.50
28177;DHT22;15461;41.652;9.378;2022-09-09T10:43:48;31.70;65.40
28177;DHT22;15461;41.652;9.378;2022-09-09T10:49:20;31.90;65.80
28177;DHT22;15461;41.652;9.378;2022-09-09T11:00:13;32.20;65.60
28177;DHT22;15461;41.652;9.378;2022-09-09T11:02:41;32.20;67.60
28177;DHT22;15461;41.652;9.378;2022-09-09T11:05:20;32.10;64.70
28177;DHT22;15461;41.652;9.378;2022-09-09T11:10:39;32.00;66.00
28177;DHT22;15461;41.652;9.378;2022-09-09T11:13:17;32.00;67.40
28177;DHT22;15461;41.652;9.378;2022-09-09T11:15:49;32.10;67.40
28177;DHT22;15461;41.652;9.378;2022-09-09T11:18:21;32.20;68.70
28177;DHT22;15461;41.652;9.378;2022-09-09T11:20:53;32.40;66.70
28177;DHT22;15461;41.652;9.378;2022-09-09T11:23:32;32.50;65.90
28177;DHT22;15461;41.652;9.378;2022-09-09T11:26:02;32.40;65.30
28177;DHT22;15461;41.652;9.378;2022-09-09T11:40:04;32.00;70.60
28177;DHT22;15461;41.652;9.378;2022-09-09T11:42:29;32.10;71.30
28177;DHT22;15461;41.652;9.378;2022-09-09T11:44:55;32.10;71.90
28177;DHT22;15461;41.652;9.378;2022-09-09T11:47:27;32.20;72.50
28177;DHT22;15461;41.652;9.378;2022-09-09T11:52:45;32.40;66.70
28177;DHT22;15461;41.652;9.378;2022-09-09T11:55:25;32.40;66.20
28177;DHT22;15461;41.652;9.378;2022-09-09T11:58:06;32.50;66.50
28177;DHT22;15461;41.652;9.378;2022-09-09T12:00:43;32.30;66.20
28177;DHT22;15461;41.652;9.378;2022-09-09T12:06:10;32.20;65.90
28177;DHT22;15461;41.652;9.378;2022-09-09T12:08:37;32.20;67.00
28177;DHT22;15461;41.652;9.378;2022-09-09T12:11:06;32.20;65.30
28177;DHT22;15461;41.652;9.378;2022-09-09T12:13:32;32.20;65.90
28177;DHT22;15461;41.652;9.378;2022-09-09T12:16:00;32.30;65.80
28177;DHT22;15461;41.652;9.378;2022-09-09T12:18:40;32.30;65.80
28177;DHT22;15461;41.652;9.378;2022-09-09T12:29:27;32.80;63.80
28177;DHT22;15461;41.652;9.378;2022-09-09T12:32:31;32.70;63.50
28177;DHT22;15461;41.652;9.378;2022-09-09T12:40:28;32.70;62.40
28177;DHT22;15461;41.652;9.378;2022-09-09T12:42:53;32.80;63.90
28177;DHT22;15461;41.652;9.378;2022-09-09T12:45:29;33.00;62.40
28177;DHT22;15461;41.652;9.378;2022-09-09T12:48:06;33.20;61.10
28177;DHT22;15461;41.652;9.378;2022-09-09T12:50:51;33.30;61.10
28177;DHT22;15461;41.652;9.378;2022-09-09T12:53:25;33.30;60.60
28177;DHT22;15461;41.652;9.378;2022-09-09T12:56:06;33.20;60.80
28177;DHT22;15461;41.652;9.378;2022-09-09T12:58:37;33.00;60.70
28177;DHT22;15461;41.652;9.378;2022-09-09T13:01:04;33.00;60.80
28177;DHT22;15461;41.652;9.378;2022-09-09T13:03:32;33.00;60.50
28177;DHT22;15461;41.652;9.378;2022-09-09T13:06:11;32.90;60.70
28177;DHT22;15461;41.652;9.378;2022-09-09T13:08:38;33.00;60.40
28177;DHT22;15461;41.652;9.378;2022-09-09T13:11:09;33.00;60.20
28177;DHT22;15461;41.652;9.378;2022-09-09T13:13:38;33.00;61.80
28177;DHT22;15461;41.652;9.378;2022-09-09T13:16:06;33.00;59.90
28177;DHT22;15461;41.652;9.378;2022-09-09T13:18:40;32.90;60.20
28177;DHT22;15461;41.652;9.378;2022-09-09T13:21:07;32.80;60.60
28177;DHT22;15461;41.652;9.378;2022-09-09T13:23:35;32.80;61.60
28177;DHT22;15461;41.652;9.378;2022-09-09T13:26:25;32.90;60.20
28177;DHT22;15461;41.652;9.378;2022-09-09T13:28:55;32.90;60.20
28177;DHT22;15461;41.652;9.378;2022-09-09T13:31:35;32.90;61.00
28177;DHT22;15461;41.652;9.378;2022-09-09T13:34:32;32.90;62.10
28177;DHT22;15461;41.652;9.378;2022-09-09T13:37:01;33.00;64.00
28177;DHT22;15461;41.652;9.378;2022-09-09T13:39:28;33.00;62.90
28177;DHT22;15461;41.652;9.378;2022-09-09T13:41:54;32.80;62.20
28177;DHT22;15461;41.652;9.378;2022-09-09T13:44:27;32.80;62.00
28177;DHT22;15461;41.652;9.378;2022-09-09T13:47:34;32.80;62.70
28177;DHT22;15461;41.652;9.378;2022-09-09T13:50:32;32.70;67.00
28177;DHT22;15461;41.652;9.378;2022-09-09T13:52:59;32.70;67.00
28177;DHT22;15461;41.652;9.378;2022-09-09T13:55:26;32.80;65.20
28177;DHT22;15461;41.652;9.378;2022-09-09T13:57:55;32.90;67.50
28177;DHT22;15461;41.652;9.378;2022-09-09T14:00:22;32.80;70.80
28177;DHT22;15461;41.652;9.378;2022-09-09T14:02:50;32.60;70.20
28177;DHT22;15461;41.652;9.378;2022-09-09T14:05:17;32.50;70.30
28177;DHT22;15461;41.652;9.378;2022-09-09T14:07:44;32.30;69.80
28177;DHT22;15461;41.652;9.378;2022-09-09T14:10:11;32.20;69.80
28177;DHT22;15461;41.652;9.378;2022-09-09T14:12:37;32.20;70.60
28177;DHT22;15461;41.652;9.378;2022-09-09T14:15:05;32.30;71.20
28177;DHT22;15461;41.652;9.378;2022-09-09T14:17:31;32.40;69.80
28177;DHT22;15461;41.652;9.378;2022-09-09T14:19:57;32.40;70.10
28177;DHT22;15461;41.652;9.378;2022-09-09T14:22:24;32.50;70.50
28177;DHT22;15461;41.652;9.378;2022-09-09T14:24:51;32.50;71.30
28177;DHT22;15461;41.652;9.378;2022-09-09T14:27:17;32.50;69.70
28177;DHT22;15461;41.652;9.378;2022-09-09T14:29:44;32.60;68.80
28177;DHT22;15461;41.652;9.378;2022-09-09T14:32:11;32.80;67.50
28177;DHT22;15461;41.652;9.378;2022-09-09T14:34:37;32.90;64.90
28177;DHT22;15461;41.652;9.378;2022-09-09T14:37:03;33.00;65.50
28177;DHT22;15461;41.652;9.378;2022-09-09T14:39:30;33.20;66.70
28177;DHT22;15461;41.652;9.378;2022-09-09T14:41:56;33.10;67.20
28177;DHT22;15461;41.652;9.378;2022-09-09T14:44:22;32.90;68.30
28177;DHT22;15461;41.652;9.378;2022-09-09T14:46:48;32.60;67.60
28177;DHT22;15461;41.652;9.378;2022-09-09T14:49:16;32.50;67.90
28177;DHT22;15461;41.652;9.378;2022-09-09T14:51:42;32.20;68.70
28177;DHT22;15461;41.652;9.378;2022-09-09T14:54:08;32.10;67.90
28177;DHT22;15461;41.652;9.378;2022-09-09T14:56:34;32.00;68.30
28177;DHT22;15461;41.652;9.378;2022-09-09T14:59:00;31.90;67.90
28177;DHT22;15461;41.652;9.378;2022-09-09T15:01:27;31.80;68.00
28177;DHT22;15461;41.652;9.378;2022-09-09T15:03:55;31.80;67.80
28177;DHT22;15461;41.652;9.378;2022-09-09T15:06:24;31.60;67.40
28177;DHT22;15461;41.652;9.378;2022-09-09T15:08:51;31.40;68.30
28177;DHT22;15461;41.652;9.378;2022-09-09T15:11:18;31.30;68.60
28177;DHT22;15461;41.652;9.378;2022-09-09T15:13:44;31.40;68.00
28177;DHT22;15461;41.652;9.378;2022-09-09T15:16:15;31.50;68.20
28177;DHT22;15461;41.652;9.378;2022-09-09T15:18:42;31.60;68.10
28177;DHT22;15461;41.652;9.378;2022-09-09T15:21:11;31.50;68.20
28177;DHT22;15461;41.652;9.378;2022-09-09T15:23:38;31.40;68.30
28177;DHT22;15461;41.652;9.378;2022-09-09T15:26:05;31.30;68.10
28177;DHT22;15461;41.652;9.378;2022-09-09T15:28:35;31.30;68.20
28177;DHT22;15461;41.652;9.378;2022-09-09T15:31:11;31.50;68.00
28177;DHT22;15461;41.652;9.378;2022-09-09T15:33:37;31.50;68.00
28177;DHT22;15461;41.652;9.378;2022-09-09T15:36:20;31.60;68.00
28177;DHT22;15461;41.652;9.378;2022-09-09T15:38:46;31.80;67.30
28177;DHT22;15461;41.652;9.378;2022-09-09T15:41:13;31.90;67.50
28177;DHT22;15461;41.652;9.378;2022-09-09T15:43:46;32.20;66.50
28177;DHT22;15461;41.652;9.378;2022-09-09T15:48:51;32.10;65.90
28177;DHT22;15461;41.652;9.378;2022-09-09T15:51:20;32.10;64.80
28177;DHT22;15461;41.652;9.378;2022-09-09T15:53:46;32.10;63.40
28177;DHT22;15461;41.652;9.378;2022-09-09T15:56:13;32.00;63.60
28177;DHT22;15461;41.652;9.378;2022-09-09T15:58:39;32.00;63.70
28177;DHT22;15461;41.652;9.378;2022-09-09T16:01:08;31.90;63.60
28177;DHT22;15461;41.652;9.378;2022-09-09T16:03:39;32.00;64.20
28177;DHT22;15461;41.652;9.378;2022-09-09T16:06:07;31.90;63.20
28177;DHT22;15461;41.652;9.378;2022-09-09T16:08:35;31.90;62.70
28177;DHT22;15461;41.652;9.378;2022-09-09T16:11:10;31.80;62.30
28177;DHT22;15461;41.652;9.378;2022-09-09T16:13:37;31.60;62.50
28177;DHT22;15461;41.652;9.378;2022-09-09T16:16:05;31.50;62.60
28177;DHT22;15461;41.652;9.378;2022-09-09T16:18:36;31.50;62.60
28177;DHT22;15461;41.652;9.378;2022-09-09T16:21:04;31.30;63.10
28177;DHT22;15461;41.652;9.378;2022-09-09T16:23:34;31.10;63.00
28177;DHT22;15461;41.652;9.378;2022-09-09T16:26:01;31.10;63.30
28177;DHT22;15461;41.652;9.378;2022-09-09T16:28:28;31.00;63.30
28177;DHT22;15461;41.652;9.378;2022-09-09T16:30:54;30.80;62.90
28177;DHT22;15461;41.652;9.378;2022-09-09T16:33:20;30.70;63.80
28177;DHT22;15461;41.652;9.378;2022-09-09T16:35:46;30.60;63.90
28177;DHT22;15461;41.652;9.378;2022-09-09T16:38:12;30.60;64.20
28177;DHT22;15461;41.652;9.378;2022-09-09T16:40:38;30.60;64.40
28177;DHT22;15461;41.652;9.378;2022-09-09T16:43:07;30.60;64.80
28177;DHT22;15461;41.652;9.378;2022-09-09T16:45:43;30.40;63.60
28177;DHT22;15461;41.652;9.378;2022-09-09T16:48:11;30.30;64.20
28177;DHT22;15461;41.652;9.378;2022-09-09T16:50:37;30.20;64.00
28177;DHT22;15461;41.652;9.378;2022-09-09T16:53:05;30.10;64.30
28177;DHT22;15461;41.652;9.378;2022-09-09T16:55:38;30.00;64.70
28177;DHT22;15461;41.652;9.378;2022-09-09T16:58:05;29.90;65.10
28177;DHT22;15461;41.652;9.378;2022-09-09T17:00:31;29.90;65.70
28177;DHT22;15461;41.652;9.378;2022-09-09T17:02:57;29.80;65.00
28177;DHT22;15461;41.652;9.378;2022-09-09T17:05:24;29.80;65.10
28177;DHT22;15461;41.652;9.378;2022-09-09T17:07:50;29.60;65.10
28177;DHT22;15461;41.652;9.378;2022-09-09T17:10:17;29.50;65.70
28177;DHT22;15461;41.652;9.378;2022-09-09T17:12:43;29.50;65.50
28177;DHT22;15461;41.652;9.378;2022-09-09T17:15:09;29.50;65.60
28177;DHT22;15461;41.652;9.378;2022-09-09T17:17:35;29.30;66.30
28177;DHT22;15461;41.652;9.378;2022-09-09T17:20:01;29.30;65.70
28177;DHT22;15461;41.652;9.378;2022-09-09T17:22:28;29.10;65.80
28177;DHT22;15461;41.652;9.378;2022-09-09T17:24:54;29.00;67.60
28177;DHT22;15461;41.652;9.378;2022-09-09T17:27:20;29.00;67.90
28177;DHT22;15461;41.652;9.378;2022-09-09T17:29:46;28.90;68.20
28177;DHT22;15461;41.652;9.378;2022-09-09T17:32:12;28.90;68.30
28177;DHT22;15461;41.652;9.378;2022-09-09T17:34:38;28.80;68.40
28177;DHT22;15461;41.652;9.378;2022-09-09T17:37:04;28.80;68.50
28177;DHT22;15461;41.652;9.378;2022-09-09T17:39:31;28.80;68.80
28177;DHT22;15461;41.652;9.378;2022-09-09T17:41:57;28.80;69.30
28177;DHT22;15461;41.652;9.378;2022-09-09T17:44:23;28.70;69.90
28177;DHT22;15461;41.652;9.378;2022-09-09T17:46:49;28.60;70.40
28177;DHT22;15461;41.652;9.378;2022-09-09T17:49:16;28.60;71.60
28177;DHT22;15461;41.652;9.378;2022-09-09T17:51:45;28.50;70.70
28177;DHT22;15461;41.652;9.378;2022-09-09T17:54:14;28.40;70.80
28177;DHT22;15461;41.652;9.378;2022-09-09T17:56:40;28.40;71.10
28177;DHT22;15461;41.652;9.378;2022-09-09T17:59:08;28.30;71.10
28177;DHT22;15461;41.652;9.378;2022-09-09T18:01:37;28.30;71.50